TimeCEST,TemperatureF,Dew PointF,Humidity,Sea Level PressureIn,VisibilityMPH,Wind Direction,Wind SpeedMPH,Gust SpeedMPH,PrecipitationIn,Events,Conditions,WindDirDegrees,DateUTC
1:55 AM,50.0,46.4,87,30.39,0.4,ESE,3.5,-,N/A,Fog,Fog,120,2013-07-17 23:55:00
2:00 AM,50,46,81,,0,ESE,3.5,,,Fog,Heavy Fog,120,2013-07-18 00:00:00
4:55 AM,50.0,42.8,76,30.39,-9999.0,North,2.3,-,N/A,,Clear,10,2013-07-18 02:55:00
5:00 AM,49,43,74,,7,North,2.3,,,,Partly Cloudy,10,2013-07-18 03:00:00
5:55 AM,50.0,42.8,76,30.39,-9999.0,NNE,2.3,-,N/A,,Clear,20,2013-07-18 03:55:00
6:55 AM,48.2,42.8,82,30.36,-9999.0,ESE,4.6,-,N/A,,Clear,110,2013-07-18 04:55:00
7:55 AM,50.0,42.8,76,30.36,-9999.0,East,2.3,-,N/A,,Clear,100,2013-07-18 05:55:00
8:00 AM,50,42,67,,12,East,2.3,,,,Partly Cloudy,100,2013-07-18 06:00:00
8:55 AM,53.6,44.6,72,30.36,-9999.0,SW,3.5,-,N/A,,Clear,230,2013-07-18 06:55:00
9:55 AM,51.8,44.6,76,30.36,6.2,ESE,8.1,-,N/A,,Partly Cloudy,120,2013-07-18 07:55:00
10:55 AM,55.4,46.4,72,30.36,6.2,ESE,9.2,-,N/A,,Scattered Clouds,120,2013-07-18 08:55:00
11:00 AM,55,46,64,,12,ESE,9.2,,,,Partly Cloudy,120,2013-07-18 09:00:00
11:55 AM,55.4,46.4,72,30.36,6.2,ESE,6.9,-,N/A,,Mostly Cloudy,120,2013-07-18 09:55:00
12:55 PM,57.2,41.0,55,30.36,6.2,South,2.3,-,N/A,,Mostly Cloudy,190,2013-07-18 10:55:00
1:55 PM,57.2,46.4,67,30.36,6.2,SE,12.7,-,N/A,,Scattered Clouds,130,2013-07-18 11:55:00
2:00 PM,56,47,64,,9,SE,12.7,,,,Mostly Cloudy,130,2013-07-18 12:00:00
2:55 PM,55.4,48.2,77,30.36,6.2,SE,13.8,-,N/A,Thunderstorm,Thunderstorm,130,2013-07-18 12:55:00
3:55 PM,53.6,48.2,82,30.36,3.7,WSW,11.5,-,N/A,Rain-Thunderstorm,Thunderstorms and Rain,250,2013-07-18 13:55:00
4:55 PM,48.2,46.4,93,30.36,3.1,NNE,3.5,-,N/A,Rain-Thunderstorm,Thunderstorms and Rain,20,2013-07-18 14:55:00
5:00 PM,48,47,93,,3,NNE,3.5,,,Rain-Thunderstorm,Thunderstorms and Rain,20,2013-07-18 15:00:00
5:55 PM,48.2,46.4,93,30.36,5.0,East,5.8,-,N/A,,Mostly Cloudy,80,2013-07-18 15:55:00
6:55 PM,48.2,46.4,93,30.36,6.2,ESE,6.9,-,N/A,Rain,Light Rain,110,2013-07-18 16:55:00
7:55 PM,48.2,44.6,87,30.36,6.2,ESE,3.5,-,N/A,,Partly Cloudy,110,2013-07-18 17:55:00
8:00 PM,48,45,87,,16,ESE,3.5,,,Rain,Light Rain,110,2013-07-18 18:00:00
10:55 PM,48.2,41.0,76,30.36,6.2,ESE,3.5,-,N/A,,Partly Cloudy,110,2013-07-18 20:55:00